sensor_id;sensor_type;location;lat;lon;timestamp;pressure;altitude;pressure_sealevel;temperature;humidity
32933;BME280;19444;50.518;10.870;2022-10-16T00:00:25;96304.38;;;13.76;100.00
32933;BME280;19444;50.518;10.870;2022-10-16T00:03:22;96308.97;;;13.76;100.00
32933;BME280;19444;50.518;10.870;2022-10-16T00:06:26;96313.13;;;13.73;100.00
32933;BME280;19444;50.518;10.870;2022-10-16T00:09:23;96312.00;;;13.74;100.00
32933;BME280;19444;50.518;10.870;2022-10-16T00:12:20;96312.44;;;13.76;100.00
32933;BME280;19444;50.518;10.870;2022-10-16T00:15:17;96314.69;;;13.74;100.00
32933;BME280;19444;50.518;10.870;2022-10-16T00:18:14;96323.09;;;13.73;100.00
32933;BME280;19444;50.518;10.870;2022-10-16T00:21:18;96317.56;;;13.69;100.00
32933;BME280;19444;50.518;10.870;2022-10-16T00:24:15;96316.25;;;13.75;100.00
32933;BME280;19444;50.518;10.870;2022-10-16T00:27:12;96313.56;;;13.75;100.00
32933;BME280;19444;50.518;10.870;2022-10-16T00:30:09;96316.69;;;13.65;100.00
32933;BME280;19444;50.518;10.870;2022-10-16T00:33:06;96313.66;;;13.66;100.00
32933;BME280;19444;50.518;10.870;2022-10-16T00:36:05;96322.06;;;13.65;100.00
32933;BME280;19444;50.518;10.870;2022-10-16T00:39:03;96314.34;;;13.76;100.00
32933;BME280;19444;50.518;10.870;2022-10-16T00:42:00;96310.69;;;13.59;100.00
32933;BME280;19444;50.518;10.870;2022-10-16T00:44:58;96312.75;;;13.62;100.00
32933;BME280;19444;50.518;10.870;2022-10-16T00:47:55;96312.84;;;13.66;100.00
32933;BME280;19444;50.518;10.870;2022-10-16T00:50:53;96310.94;;;13.66;100.00
32933;BME280;19444;50.518;10.870;2022-10-16T00:53:50;96317.31;;;13.62;100.00
32933;BME280;19444;50.518;10.870;2022-10-16T00:56:47;96316.94;;;13.72;100.00
32933;BME280;19444;50.518;10.870;2022-10-16T00:59:46;96317.78;;;13.64;100.00
32933;BME280;19444;50.518;10.870;2022-10-16T01:02:43;96316.09;;;13.59;100.00
32933;BME280;19444;50.518;10.870;2022-10-16T01:05:49;96322.25;;;13.60;100.00
32933;BME280;19444;50.518;10.870;2022-10-16T01:09:23;96334.28;;;13.62;100.00
32933;BME280;19444;50.518;10.870;2022-10-16T01:12:40;96320.22;;;13.57;100.00
32933;BME280;19444;50.518;10.870;2022-10-16T01:16:02;96325.63;;;13.57;100.00
32933;BME280;19444;50.518;10.870;2022-10-16T01:19:14;96323.25;;;13.55;100.00
32933;BME280;19444;50.518;10.870;2022-10-16T01:22:13;96330.53;;;13.55;100.00
32933;BME280;19444;50.518;10.870;2022-10-16T01:32:57;96325.94;;;13.55;100.00
32933;BME280;19444;50.518;10.870;2022-10-16T01:36:13;96336.13;;;13.50;100.00
32933;BME280;19444;50.518;10.870;2022-10-16T01:39:11;96342.75;;;13.52;100.00
32933;BME280;19444;50.518;10.870;2022-10-16T01:42:23;96344.09;;;13.46;100.00
32933;BME280;19444;50.518;10.870;2022-10-16T01:45:21;96344.19;;;13.50;100.00
32933;BME280;19444;50.518;10.870;2022-10-16T01:48:20;96347.69;;;13.50;100.00
32933;BME280;19444;50.518;10.870;2022-10-16T01:51:19;96355.75;;;13.50;100.00
32933;BME280;19444;50.518;10.870;2022-10-16T01:54:18;96349.72;;;13.53;100.00
32933;BME280;19444;50.518;10.870;2022-10-16T01:57:17;96349.53;;;13.37;100.00
32933;BME280;19444;50.518;10.870;2022-10-16T02:00:17;96349.31;;;13.43;100.00
32933;BME280;19444;50.518;10.870;2022-10-16T02:03:18;96347.56;;;13.47;100.00
32933;BME280;19444;50.518;10.870;2022-10-16T02:06:16;96348.34;;;13.47;100.00
32933;BME280;19444;50.518;10.870;2022-10-16T02:09:13;96353.50;;;13.52;100.00
32933;BME280;19444;50.518;10.870;2022-10-16T02:12:26;96352.41;;;13.53;100.00
32933;BME280;19444;50.518;10.870;2022-10-16T02:15:24;96342.09;;;13.55;100.00
32933;BME280;19444;50.518;10.870;2022-10-16T02:18:22;96336.13;;;13.50;100.00
32933;BME280;19444;50.518;10.870;2022-10-16T02:21:49;96349.25;;;13.51;100.00
32933;BME280;19444;50.518;10.870;2022-10-16T02:25:10;96357.31;;;13.51;100.00
32933;BME280;19444;50.518;10.870;2022-10-16T02:28:19;96359.56;;;13.49;100.00
32933;BME280;19444;50.518;10.870;2022-10-16T02:31:31;96365.28;;;13.48;100.00
32933;BME280;19444;50.518;10.870;2022-10-16T02:34:32;96363.66;;;13.55;100.00
32933;BME280;19444;50.518;10.870;2022-10-16T02:37:30;96367.97;;;13.48;100.00
32933;BME280;19444;50.518;10.870;2022-10-16T02:40:27;96373.34;;;13.48;100.00
32933;BME280;19444;50.518;10.870;2022-10-16T02:43:25;96368.56;;;13.53;100.00
32933;BME280;19444;50.518;10.870;2022-10-16T02:46:22;96360.34;;;13.50;100.00
32933;BME280;19444;50.518;10.870;2022-10-16T02:49:19;96366.06;;;13.48;100.00
32933;BME280;19444;50.518;10.870;2022-10-16T02:52:16;96364.22;;;13.40;100.00
32933;BME280;19444;50.518;10.870;2022-10-16T02:55:12;96365.41;;;13.51;100.00
32933;BME280;19444;50.518;10.870;2022-10-16T02:58:09;96364.28;;;13.52;100.00
32933;BME280;19444;50.518;10.870;2022-10-16T03:01:06;96359.38;;;13.54;100.00
32933;BME280;19444;50.518;10.870;2022-10-16T03:04:04;96356.41;;;13.47;100.00
32933;BME280;19444;50.518;10.870;2022-10-16T03:07:01;96373.81;;;13.50;100.00
32933;BME280;19444;50.518;10.870;2022-10-16T03:09:57;96382.56;;;13.47;100.00
32933;BME280;19444;50.518;10.870;2022-10-16T03:12:56;96370.44;;;13.53;100.00
32933;BME280;19444;50.518;10.870;2022-10-16T03:15:53;96374.59;;;13.50;100.00
32933;BME280;19444;50.518;10.870;2022-10-16T03:18:50;96375.84;;;13.53;100.00
32933;BME280;19444;50.518;10.870;2022-10-16T03:21:47;96376.31;;;13.55;100.00
32933;BME280;19444;50.518;10.870;2022-10-16T03:24:44;96379.53;;;13.48;100.00
32933;BME280;19444;50.518;10.870;2022-10-16T03:27:41;96369.16;;;13.59;100.00
32933;BME280;19444;50.518;10.870;2022-10-16T03:30:38;96358.91;;;13.52;100.00
32933;BME280;19444;50.518;10.870;2022-10-16T03:33:36;96380.66;;;13.47;100.00
32933;BME280;19444;50.518;10.870;2022-10-16T03:36:33;96373.03;;;13.49;100.00
32933;BME280;19444;50.518;10.870;2022-10-16T03:39:30;96376.50;;;13.50;100.00
32933;BME280;19444;50.518;10.870;2022-10-16T03:42:26;96380.03;;;13.42;100.00
32933;BME280;19444;50.518;10.870;2022-10-16T03:45:24;96379.97;;;13.50;100.00
32933;BME280;19444;50.518;10.870;2022-10-16T03:48:21;96375.44;;;13.42;100.00
32933;BME280;19444;50.518;10.870;2022-10-16T03:51:18;96380.19;;;13.45;100.00
32933;BME280;19444;50.518;10.870;2022-10-16T03:54:15;96387.78;;;13.43;100.00
32933;BME280;19444;50.518;10.870;2022-10-16T03:57:11;96383.84;;;13.41;100.00
32933;BME280;19444;50.518;10.870;2022-10-16T04:00:09;96388.72;;;13.47;100.00
32933;BME280;19444;50.518;10.870;2022-10-16T04:03:06;96397.31;;;13.41;100.00
32933;BME280;19444;50.518;10.870;2022-10-16T04:06:03;96388.44;;;13.40;100.00
32933;BME280;19444;50.518;10.870;2022-10-16T04:09:00;96392.94;;;13.36;100.00
32933;BME280;19444;50.518;10.870;2022-10-16T04:11:57;96394.69;;;13.32;100.00
32933;BME280;19444;50.518;10.870;2022-10-16T04:14:54;96392.38;;;13.22;100.00
32933;BME280;19444;50.518;10.870;2022-10-16T04:17:51;96403.75;;;13.27;100.00
32933;BME280;19444;50.518;10.870;2022-10-16T04:20:48;96395.41;;;13.41;100.00
32933;BME280;19444;50.518;10.870;2022-10-16T04:23:45;96402.75;;;13.32;100.00
32933;BME280;19444;50.518;10.870;2022-10-16T04:26:42;96408.47;;;13.30;100.00
32933;BME280;19444;50.518;10.870;2022-10-16T04:29:39;96406.44;;;13.27;100.00
32933;BME280;19444;50.518;10.870;2022-10-16T04:32:36;96414.53;;;13.19;100.00
32933;BME280;19444;50.518;10.870;2022-10-16T04:35:33;96411.81;;;13.27;100.00
32933;BME280;19444;50.518;10.870;2022-10-16T04:38:30;96422.44;;;13.24;100.00
32933;BME280;19444;50.518;10.870;2022-10-16T04:41:27;96418.13;;;13.31;100.00
32933;BME280;19444;50.518;10.870;2022-10-16T04:44:24;96426.66;;;13.33;100.00
32933;BME280;19444;50.518;10.870;2022-10-16T04:47:20;96420.81;;;13.31;100.00
32933;BME280;19444;50.518;10.870;2022-10-16T04:50:17;96427.97;;;13.27;100.00
32933;BME280;19444;50.518;10.870;2022-10-16T04:53:14;96425.41;;;13.31;100.00
32933;BME280;19444;50.518;10.870;2022-10-16T04:56:11;96427.44;;;13.34;100.00
32933;BME280;19444;50.518;10.870;2022-10-16T04:59:09;96429.22;;;13.30;100.00
32933;BME280;19444;50.518;10.870;2022-10-16T05:02:06;96434.00;;;13.24;100.00
32933;BME280;19444;50.518;10.870;2022-10-16T05:05:03;96438.59;;;13.24;100.00
32933;BME280;19444;50.518;10.870;2022-10-16T05:08:00;96439.69;;;13.23;100.00
32933;BME280;19444;50.518;10.870;2022-10-16T05:10:57;96434.00;;;13.16;100.00
32933;BME280;19444;50.518;10.870;2022-10-16T05:13:54;96438.91;;;13.22;100.00
32933;BME280;19444;50.518;10.870;2022-10-16T05:16:51;96444.31;;;13.14;100.00
32933;BME280;19444;50.518;10.870;2022-10-16T05:19:48;96442.13;;;13.07;100.00
32933;BME280;19444;50.518;10.870;2022-10-16T05:22:45;96456.69;;;13.06;100.00
32933;BME280;19444;50.518;10.870;2022-10-16T05:25:42;96467.00;;;13.04;100.00
32933;BME280;19444;50.518;10.870;2022-10-16T05:28:39;96463.66;;;13.07;100.00
32933;BME280;19444;50.518;10.870;2022-10-16T05:31:36;96474.44;;;12.98;100.00
32933;BME280;19444;50.518;10.870;2022-10-16T05:34:32;96480.03;;;12.93;100.00
32933;BME280;19444;50.518;10.870;2022-10-16T05:37:29;96486.06;;;12.90;100.00
32933;BME280;19444;50.518;10.870;2022-10-16T05:40:27;96481.91;;;12.93;100.00
32933;BME280;19444;50.518;10.870;2022-10-16T05:43:24;96492.81;;;12.96;100.00
32933;BME280;19444;50.518;10.870;2022-10-16T05:46:21;96483.81;;;12.92;100.00
32933;BME280;19444;50.518;10.870;2022-10-16T05:49:18;96485.25;;;12.90;100.00
32933;BME280;19444;50.518;10.870;2022-10-16T05:52:15;96485.56;;;12.88;100.00
32933;BME280;19444;50.518;10.870;2022-10-16T05:55:12;96489.19;;;12.92;100.00
32933;BME280;19444;50.518;10.870;2022-10-16T05:58:09;96486.50;;;12.92;100.00
32933;BME280;19444;50.518;10.870;2022-10-16T06:01:17;96495.50;;;12.96;100.00
32933;BME280;19444;50.518;10.870;2022-10-16T06:04:15;96495.69;;;12.91;100.00
32933;BME280;19444;50.518;10.870;2022-10-16T06:07:12;96497.06;;;12.97;100.00
32933;BME280;19444;50.518;10.870;2022-10-16T06:10:09;96502.00;;;12.95;100.00
32933;BME280;19444;50.518;10.870;2022-10-16T06:13:05;96511.84;;;12.91;100.00
32933;BME280;19444;50.518;10.870;2022-10-16T06:16:03;96516.56;;;12.94;100.00
32933;BME280;19444;50.518;10.870;2022-10-16T06:19:01;96519.13;;;12.91;100.00
32933;BME280;19444;50.518;10.870;2022-10-16T06:21:58;96510.88;;;12.87;100.00
32933;BME280;19444;50.518;10.870;2022-10-16T06:24:55;96520.22;;;12.90;100.00
32933;BME280;19444;50.518;10.870;2022-10-16T06:27:52;96518.78;;;12.92;100.00
32933;BME280;19444;50.518;10.870;2022-10-16T06:30:49;96528.44;;;12.93;100.00
32933;BME280;19444;50.518;10.870;2022-10-16T06:34:00;96533.34;;;12.91;100.00
32933;BME280;19444;50.518;10.870;2022-10-16T06:36:57;96528.91;;;12.95;100.00
32933;BME280;19444;50.518;10.870;2022-10-16T06:39:54;96527.78;;;12.96;100.00
32933;BME280;19444;50.518;10.870;2022-10-16T06:42:50;96531.44;;;13.00;100.00
32933;BME280;19444;50.518;10.870;2022-10-16T06:45:55;96536.47;;;13.02;100.00
32933;BME280;19444;50.518;10.870;2022-10-16T06:48:53;96531.44;;;13.00;100.00
32933;BME280;19444;50.518;10.870;2022-10-16T06:51:50;96548.69;;;12.99;100.00
32933;BME280;19444;50.518;10.870;2022-10-16T06:54:47;96551.03;;;13.01;100.00
32933;BME280;19444;50.518;10.870;2022-10-16T06:57:47;96561.16;;;13.04;100.00
32933;BME280;19444;50.518;10.870;2022-10-16T07:00:44;96564.50;;;13.01;100.00
32933;BME280;19444;50.518;10.870;2022-10-16T07:03:43;96561.00;;;13.00;100.00
32933;BME280;19444;50.518;10.870;2022-10-16T07:06:40;96567.97;;;13.01;100.00
32933;BME280;19444;50.518;10.870;2022-10-16T07:09:37;96571.59;;;13.05;100.00
32933;BME280;19444;50.518;10.870;2022-10-16T07:12:34;96579.81;;;13.09;100.00
32933;BME280;19444;50.518;10.870;2022-10-16T07:15:30;96587.72;;;13.05;100.00
32933;BME280;19444;50.518;10.870;2022-10-16T07:18:28;96578.84;;;13.14;100.00
32933;BME280;19444;50.518;10.870;2022-10-16T07:21:32;96582.00;;;13.16;100.00
32933;BME280;19444;50.518;10.870;2022-10-16T07:24:32;96578.38;;;13.20;100.00
32933;BME280;19444;50.518;10.870;2022-10-16T07:27:29;96582.50;;;13.18;100.00
32933;BME280;19444;50.518;10.870;2022-10-16T07:30:26;96587.25;;;13.21;100.00
32933;BME280;19444;50.518;10.870;2022-10-16T07:33:23;96583.44;;;13.22;100.00
32933;BME280;19444;50.518;10.870;2022-10-16T07:36:21;96585.81;;;13.23;100.00
32933;BME280;19444;50.518;10.870;2022-10-16T07:39:18;96599.44;;;13.27;100.00
32933;BME280;19444;50.518;10.870;2022-10-16T07:42:15;96604.63;;;13.32;100.00
32933;BME280;19444;50.518;10.870;2022-10-16T07:45:12;96603.00;;;13.40;100.00
32933;BME280;19444;50.518;10.870;2022-10-16T07:48:08;96594.31;;;13.34;100.00
32933;BME280;19444;50.518;10.870;2022-10-16T07:51:06;96603.69;;;13.28;100.00
32933;BME280;19444;50.518;10.870;2022-10-16T07:54:04;96611.41;;;13.38;100.00
32933;BME280;19444;50.518;10.870;2022-10-16T07:57:00;96605.97;;;13.55;100.00
32933;BME280;19444;50.518;10.870;2022-10-16T07:59:57;96610.06;;;13.53;100.00
32933;BME280;19444;50.518;10.870;2022-10-16T08:02:54;96605.59;;;13.65;100.00
32933;BME280;19444;50.518;10.870;2022-10-16T08:05:51;96603.31;;;13.76;100.00
32933;BME280;19444;50.518;10.870;2022-10-16T08:08:48;96604.97;;;13.89;100.00
32933;BME280;19444;50.518;10.870;2022-10-16T08:11:45;96584.44;;;14.06;100.00
32933;BME280;19444;50.518;10.870;2022-10-16T08:14:42;96599.19;;;14.08;100.00
32933;BME280;19444;50.518;10.870;2022-10-16T08:17:43;96602.84;;;14.04;100.00
32933;BME280;19444;50.518;10.870;2022-10-16T08:20:41;96619.38;;;13.93;100.00
32933;BME280;19444;50.518;10.870;2022-10-16T08:23:38;96617.31;;;13.99;100.00
32933;BME280;19444;50.518;10.870;2022-10-16T08:26:35;96629.38;;;13.93;100.00
32933;BME280;19444;50.518;10.870;2022-10-16T08:29:32;96629.00;;;14.03;100.00
32933;BME280;19444;50.518;10.870;2022-10-16T08:32:29;96638.72;;;13.95;100.00
32933;BME280;19444;50.518;10.870;2022-10-16T08:35:26;96633.47;;;13.99;100.00
32933;BME280;19444;50.518;10.870;2022-10-16T08:38:23;96635.84;;;14.01;100.00
32933;BME280;19444;50.518;10.870;2022-10-16T08:41:56;96649.91;;;14.06;100.00
32933;BME280;19444;50.518;10.870;2022-10-16T08:48:53;96636.41;;;14.36;100.00
32933;BME280;19444;50.518;10.870;2022-10-16T08:51:51;96641.13;;;14.39;100.00
32933;BME280;19444;50.518;10.870;2022-10-16T08:54:51;96642.72;;;14.40;100.00
32933;BME280;19444;50.518;10.870;2022-10-16T08:57:50;96643.56;;;14.32;100.00
32933;BME280;19444;50.518;10.870;2022-10-16T09:00:54;96652.72;;;14.39;100.00
32933;BME280;19444;50.518;10.870;2022-10-16T09:04:46;96662.50;;;14.44;100.00
32933;BME280;19444;50.518;10.870;2022-10-16T09:11:30;96665.84;;;14.49;100.00
32933;BME280;19444;50.518;10.870;2022-10-16T09:14:52;96668.66;;;14.53;100.00
32933;BME280;19444;50.518;10.870;2022-10-16T09:21:47;96675.78;;;14.58;100.00
32933;BME280;19444;50.518;10.870;2022-10-16T09:24:44;96672.56;;;14.64;100.00
32933;BME280;19444;50.518;10.870;2022-10-16T09:27:45;96672.78;;;14.71;100.00
32933;BME280;19444;50.518;10.870;2022-10-16T09:30:44;96671.72;;;14.72;100.00
32933;BME280;19444;50.518;10.870;2022-10-16T09:33:42;96674.06;;;14.74;100.00
32933;BME280;19444;50.518;10.870;2022-10-16T09:36:44;96673.78;;;14.88;100.00
32933;BME280;19444;50.518;10.870;2022-10-16T09:39:54;96672.88;;;14.84;100.00
32933;BME280;19444;50.518;10.870;2022-10-16T09:46:19;96699.78;;;14.71;100.00
32933;BME280;19444;50.518;10.870;2022-10-16T09:49:26;96698.13;;;14.79;100.00
32933;BME280;19444;50.518;10.870;2022-10-16T09:52:24;96700.03;;;14.78;100.00
32933;BME280;19444;50.518;10.870;2022-10-16T09:55:21;96705.19;;;14.92;100.00
32933;BME280;19444;50.518;10.870;2022-10-16T09:58:20;96717.56;;;14.93;100.00
32933;BME280;19444;50.518;10.870;2022-10-16T10:01:19;96705.63;;;14.94;100.00
32933;BME280;19444;50.518;10.870;2022-10-16T10:04:24;96715.59;;;14.82;100.00
32933;BME280;19444;50.518;10.870;2022-10-16T10:07:35;96709.31;;;14.90;100.00
32933;BME280;19444;50.518;10.870;2022-10-16T10:10:42;96718.91;;;14.99;100.00
32933;BME280;19444;50.518;10.870;2022-10-16T10:13:39;96716.44;;;14.94;100.00
32933;BME280;19444;50.518;10.870;2022-10-16T10:16:36;96708.66;;;14.93;100.00
32933;BME280;19444;50.518;10.870;2022-10-16T10:19:47;96718.91;;;14.99;100.00
32933;BME280;19444;50.518;10.870;2022-10-16T10:22:45;96728.59;;;14.79;100.00
32933;BME280;19444;50.518;10.870;2022-10-16T10:29:15;96723.47;;;14.87;100.00
32933;BME280;19444;50.518;10.870;2022-10-16T10:36:29;96732.97;;;14.93;100.00
32933;BME280;19444;50.518;10.870;2022-10-16T10:40:30;96733.00;;;15.05;100.00
32933;BME280;19444;50.518;10.870;2022-10-16T10:56:51;96743.81;;;15.05;100.00
32933;BME280;19444;50.518;10.870;2022-10-16T11:00:23;96743.28;;;15.12;100.00
32933;BME280;19444;50.518;10.870;2022-10-16T11:03:35;96747.09;;;15.11;100.00
32933;BME280;19444;50.518;10.870;2022-10-16T11:06:50;96745.03;;;15.07;100.00
32933;BME280;19444;50.518;10.870;2022-10-16T11:09:57;96739.88;;;15.35;100.00
32933;BME280;19444;50.518;10.870;2022-10-16T11:16:26;96738.25;;;15.22;100.00
32933;BME280;19444;50.518;10.870;2022-10-16T11:19:58;96740.50;;;15.20;100.00
32933;BME280;19444;50.518;10.870;2022-10-16T11:23:53;96759.06;;;15.22;100.00
32933;BME280;19444;50.518;10.870;2022-10-16T11:26:54;96750.19;;;15.21;100.00
32933;BME280;19444;50.518;10.870;2022-10-16T11:30:04;96759.53;;;15.24;100.00
32933;BME280;19444;50.518;10.870;2022-10-16T11:33:20;96771.84;;;15.13;100.00
32933;BME280;19444;50.518;10.870;2022-10-16T11:36:33;96768.03;;;15.14;100.00
32933;BME280;19444;50.518;10.870;2022-10-16T11:39:33;96774.22;;;15.14;100.00
32933;BME280;19444;50.518;10.870;2022-10-16T11:42:39;96761.44;;;15.23;100.00
32933;BME280;19444;50.518;10.870;2022-10-16T11:45:58;96763.31;;;15.11;100.00
32933;BME280;19444;50.518;10.870;2022-10-16T11:49:13;96758.56;;;15.28;100.00
32933;BME280;19444;50.518;10.870;2022-10-16T11:53:13;96767.59;;;15.45;100.00
32933;BME280;19444;50.518;10.870;2022-10-16T11:55:48;96753.19;;;15.41;100.00
32933;BME280;19444;50.518;10.870;2022-10-16T11:59:08;96743.28;;;15.66;100.00
32933;BME280;19444;50.518;10.870;2022-10-16T12:02:48;96737.13;;;15.77;100.00
32933;BME280;19444;50.518;10.870;2022-10-16T12:05:59;96738.50;;;16.44;100.00
32933;BME280;19444;50.518;10.870;2022-10-16T12:09:02;96724.53;;;16.42;100.00
32933;BME280;19444;50.518;10.870;2022-10-16T12:12:00;96743.94;;;16.20;100.00
32933;BME280;19444;50.518;10.870;2022-10-16T12:15:32;96740.44;;;16.32;100.00
32933;BME280;19444;50.518;10.870;2022-10-16T12:18:50;96741.88;;;16.05;100.00
32933;BME280;19444;50.518;10.870;2022-10-16T12:22:01;96740.34;;;16.28;100.00
32933;BME280;19444;50.518;10.870;2022-10-16T12:25:00;96740.97;;;16.62;100.00
32933;BME280;19444;50.518;10.870;2022-10-16T12:28:26;96733.63;;;16.87;100.00
32933;BME280;19444;50.518;10.870;2022-10-16T12:31:43;96734.81;;;16.73;100.00
32933;BME280;19444;50.518;10.870;2022-10-16T12:34:54;96738.97;;;16.34;100.00
32933;BME280;19444;50.518;10.870;2022-10-16T12:37:51;96746.63;;;16.20;100.00
32933;BME280;19444;50.518;10.870;2022-10-16T12:41:04;96746.84;;;16.27;100.00
32933;BME280;19444;50.518;10.870;2022-10-16T12:44:02;96756.56;;;16.28;100.00
32933;BME280;19444;50.518;10.870;2022-10-16T12:47:01;96732.38;;;17.24;100.00
32933;BME280;19444;50.518;10.870;2022-10-16T12:49:59;96736.72;;;16.48;100.00
32933;BME280;19444;50.518;10.870;2022-10-16T12:53:01;96742.56;;;16.75;100.00
32933;BME280;19444;50.518;10.870;2022-10-16T12:59:18;96731.84;;;16.54;100.00
32933;BME280;19444;50.518;10.870;2022-10-16T13:09:35;96734.19;;;17.76;100.00
32933;BME280;19444;50.518;10.870;2022-10-16T13:24:00;96736.56;;;17.50;100.00
32933;BME280;19444;50.518;10.870;2022-10-16T13:27:10;96746.09;;;17.87;100.00
32933;BME280;19444;50.518;10.870;2022-10-16T13:30:24;96756.38;;;17.66;100.00
32933;BME280;19444;50.518;10.870;2022-10-16T13:33:41;96762.84;;;16.93;100.00
32933;BME280;19444;50.518;10.870;2022-10-16T13:36:56;96758.63;;;17.36;100.00
32933;BME280;19444;50.518;10.870;2022-10-16T13:40:19;96769.25;;;17.01;100.00
32933;BME280;19444;50.518;10.870;2022-10-16T13:43:39;96765.47;;;17.18;100.00
32933;BME280;19444;50.518;10.870;2022-10-16T13:46:38;96771.81;;;17.10;100.00
32933;BME280;19444;50.518;10.870;2022-10-16T13:49:35;96780.00;;;16.85;100.00
32933;BME280;19444;50.518;10.870;2022-10-16T13:52:32;96773.66;;;16.81;100.00
32933;BME280;19444;50.518;10.870;2022-10-16T13:55:29;96780.53;;;16.91;100.00
32933;BME280;19444;50.518;10.870;2022-10-16T13:58:27;96782.34;;;16.87;100.00
32933;BME280;19444;50.518;10.870;2022-10-16T14:01:42;96786.88;;;16.70;100.00
32933;BME280;19444;50.518;10.870;2022-10-16T14:04:40;96787.22;;;16.57;100.00
32933;BME280;19444;50.518;10.870;2022-10-16T14:07:37;96788.53;;;16.63;100.00
32933;BME280;19444;50.518;10.870;2022-10-16T14:10:34;96793.53;;;16.73;100.00
32933;BME280;19444;50.518;10.870;2022-10-16T14:13:40;96784.19;;;16.83;100.00
32933;BME280;19444;50.518;10.870;2022-10-16T14:16:41;96787.19;;;16.81;100.00
32933;BME280;19444;50.518;10.870;2022-10-16T14:19:39;96794.44;;;16.77;100.00
32933;BME280;19444;50.518;10.870;2022-10-16T14:22:40;96797.00;;;16.61;100.00
32933;BME280;19444;50.518;10.870;2022-10-16T14:25:37;96799.59;;;16.58;100.00
32933;BME280;19444;50.518;10.870;2022-10-16T14:28:36;96805.13;;;16.49;100.00
32933;BME280;19444;50.518;10.870;2022-10-16T14:31:34;96815.06;;;16.57;100.00
32933;BME280;19444;50.518;10.870;2022-10-16T14:34:36;96811.66;;;16.60;100.00
32933;BME280;19444;50.518;10.870;2022-10-16T14:37:34;96812.34;;;16.57;100.00
32933;BME280;19444;50.518;10.870;2022-10-16T14:40:34;96820.34;;;16.66;100.00
32933;BME280;19444;50.518;10.870;2022-10-16T14:43:38;96826.78;;;16.61;100.00
32933;BME280;19444;50.518;10.870;2022-10-16T14:46:38;96824.50;;;16.51;100.00
32933;BME280;19444;50.518;10.870;2022-10-16T14:49:36;96829.34;;;16.45;100.00
32933;BME280;19444;50.518;10.870;2022-10-16T14:52:33;96838.81;;;16.39;100.00
32933;BME280;19444;50.518;10.870;2022-10-16T14:55:29;96838.59;;;16.32;100.00
32933;BME280;19444;50.518;10.870;2022-10-16T14:58:26;96845.56;;;16.21;100.00
32933;BME280;19444;50.518;10.870;2022-10-16T15:01:23;96854.28;;;15.93;100.00
32933;BME280;19444;50.518;10.870;2022-10-16T15:04:20;96846.97;;;16.06;100.00
32933;BME280;19444;50.518;10.870;2022-10-16T15:07:21;96823.81;;;16.30;100.00
32933;BME280;19444;50.518;10.870;2022-10-16T15:10:18;96830.31;;;16.04;100.00
32933;BME280;19444;50.518;10.870;2022-10-16T15:13:19;96837.97;;;16.02;100.00
32933;BME280;19444;50.518;10.870;2022-10-16T15:16:16;96850.34;;;15.91;100.00
32933;BME280;19444;50.518;10.870;2022-10-16T15:19:19;96864.19;;;15.69;100.00
32933;BME280;19444;50.518;10.870;2022-10-16T15:22:18;96862.06;;;15.53;100.00
32933;BME280;19444;50.518;10.870;2022-10-16T15:25:42;96872.47;;;15.43;100.00
32933;BME280;19444;50.518;10.870;2022-10-16T15:28:46;96873.19;;;15.31;100.00
32933;BME280;19444;50.518;10.870;2022-10-16T15:31:43;96871.75;;;15.33;100.00
32933;BME280;19444;50.518;10.870;2022-10-16T15:34:39;96877.34;;;15.28;100.00
32933;BME280;19444;50.518;10.870;2022-10-16T15:37:39;96868.97;;;15.21;100.00
32933;BME280;19444;50.518;10.870;2022-10-16T15:40:36;96874.09;;;15.14;100.00
32933;BME280;19444;50.518;10.870;2022-10-16T15:43:34;96873.66;;;15.12;100.00
32933;BME280;19444;50.518;10.870;2022-10-16T15:46:38;96876.00;;;15.14;100.00
32933;BME280;19444;50.518;10.870;2022-10-16T15:49:35;96882.47;;;15.00;100.00
32933;BME280;19444;50.518;10.870;2022-10-16T15:52:35;96878.63;;;15.01;100.00
32933;BME280;19444;50.518;10.870;2022-10-16T15:55:34;96886.44;;;14.94;100.00
32933;BME280;19444;50.518;10.870;2022-10-16T15:58:34;96889.66;;;14.88;100.00
32933;BME280;19444;50.518;10.870;2022-10-16T16:01:35;96892.91;;;14.72;100.00
32933;BME280;19444;50.518;10.870;2022-10-16T16:04:32;96890.69;;;14.74;100.00
32933;BME280;19444;50.518;10.870;2022-10-16T16:07:44;96877.53;;;14.73;100.00
32933;BME280;19444;50.518;10.870;2022-10-16T16:10:41;96879.09;;;14.74;100.00
32933;BME280;19444;50.518;10.870;2022-10-16T16:13:39;96883.69;;;14.73;100.00
32933;BME280;19444;50.518;10.870;2022-10-16T16:16:36;96882.13;;;14.72;100.00
32933;BME280;19444;50.518;10.870;2022-10-16T16:19:34;96889.47;;;14.63;100.00
32933;BME280;19444;50.518;10.870;2022-10-16T16:22:31;96892.63;;;14.65;100.00
32933;BME280;19444;50.518;10.870;2022-10-16T16:25:28;96889.59;;;14.67;100.00
32933;BME280;19444;50.518;10.870;2022-10-16T16:28:25;96893.88;;;14.68;100.00
32933;BME280;19444;50.518;10.870;2022-10-16T16:31:27;96882.94;;;14.64;100.00
32933;BME280;19444;50.518;10.870;2022-10-16T16:34:26;96886.94;;;14.58;100.00
32933;BME280;19444;50.518;10.870;2022-10-16T16:37:24;96899.97;;;14.56;100.00
32933;BME280;19444;50.518;10.870;2022-10-16T16:40:21;96903.16;;;14.49;100.00
32933;BME280;19444;50.518;10.870;2022-10-16T16:43:19;96916.97;;;14.48;100.00
32933;BME280;19444;50.518;10.870;2022-10-16T16:46:19;96912.69;;;14.47;100.00